sensor_id;sensor_type;location;lat;lon;timestamp;temperature;humidity
18690;DHT22;9782;52.930;15.562;2023-04-25T07:06:51;12.40;99.90
18690;DHT22;9782;52.930;15.562;2023-04-25T07:09:18;12.50;99.90
18690;DHT22;9782;52.930;15.562;2023-04-25T07:11:44;12.60;99.90
18690;DHT22;9782;52.930;15.562;2023-04-25T07:14:11;12.70;84.60
18690;DHT22;9782;52.930;15.562;2023-04-25T07:16:38;12.80;1.00
18690;DHT22;9782;52.930;15.562;2023-04-25T07:19:05;12.90;1.00
18690;DHT22;9782;52.930;15.562;2023-04-25T07:21:32;12.90;1.00
18690;DHT22;9782;52.930;15.562;2023-04-25T07:24:00;12.90;1.00
18690;DHT22;9782;52.930;15.562;2023-04-25T07:26:27;12.90;1.00
18690;DHT22;9782;52.930;15.562;2023-04-25T07:28:54;12.90;1.00
18690;DHT22;9782;52.930;15.562;2023-04-25T07:31:22;13.00;1.00
18690;DHT22;9782;52.930;15.562;2023-04-25T07:33:49;13.00;1.00
18690;DHT22;9782;52.930;15.562;2023-04-25T07:36:15;13.20;1.00
18690;DHT22;9782;52.930;15.562;2023-04-25T07:38:42;13.30;99.90
18690;DHT22;9782;52.930;15.562;2023-04-25T07:41:10;13.40;99.90
18690;DHT22;9782;52.930;15.562;2023-04-25T07:43:37;13.50;99.90
18690;DHT22;9782;52.930;15.562;2023-04-25T07:46:04;13.50;99.90
18690;DHT22;9782;52.930;15.562;2023-04-25T07:48:31;13.50;99.90
18690;DHT22;9782;52.930;15.562;2023-04-25T07:50:58;13.50;99.90
18690;DHT22;9782;52.930;15.562;2023-04-25T07:53:25;13.40;99.90
18690;DHT22;9782;52.930;15.562;2023-04-25T07:55:52;13.30;99.90
18690;DHT22;9782;52.930;15.562;2023-04-25T07:58:20;13.20;99.90
18690;DHT22;9782;52.930;15.562;2023-04-25T08:00:47;13.10;99.90
18690;DHT22;9782;52.930;15.562;2023-04-25T08:03:15;13.20;99.90
18690;DHT22;9782;52.930;15.562;2023-04-25T08:05:42;13.30;99.90
18690;DHT22;9782;52.930;15.562;2023-04-25T08:08:09;13.40;99.90
18690;DHT22;9782;52.930;15.562;2023-04-25T08:10:36;13.40;99.90
18690;DHT22;9782;52.930;15.562;2023-04-25T08:13:02;13.60;99.90
18690;DHT22;9782;52.930;15.562;2023-04-25T08:15:30;13.80;99.90
18690;DHT22;9782;52.930;15.562;2023-04-25T08:17:57;14.00;1.00
18690;DHT22;9782;52.930;15.562;2023-04-25T08:20:24;14.10;1.00
18690;DHT22;9782;52.930;15.562;2023-04-25T08:22:51;14.20;1.00
18690;DHT22;9782;52.930;15.562;2023-04-25T08:25:18;14.30;1.00
18690;DHT22;9782;52.930;15.562;2023-04-25T08:27:45;14.10;1.00
18690;DHT22;9782;52.930;15.562;2023-04-25T08:30:12;14.00;1.00
18690;DHT22;9782;52.930;15.562;2023-04-25T08:32:41;14.10;1.00
18690;DHT22;9782;52.930;15.562;2023-04-25T08:35:08;14.10;1.00
18690;DHT22;9782;52.930;15.562;2023-04-25T08:37:35;14.20;1.00
18690;DHT22;9782;52.930;15.562;2023-04-25T08:40:04;14.40;1.00
18690;DHT22;9782;52.930;15.562;2023-04-25T08:42:33;14.50;1.00
18690;DHT22;9782;52.930;15.562;2023-04-25T08:45:01;14.60;1.00
18690;DHT22;9782;52.930;15.562;2023-04-25T08:47:30;14.60;1.00
18690;DHT22;9782;52.930;15.562;2023-04-25T08:49:59;14.80;99.90
18690;DHT22;9782;52.930;15.562;2023-04-25T08:52:32;14.80;99.90
18690;DHT22;9782;52.930;15.562;2023-04-25T08:55:02;14.70;99.90
18690;DHT22;9782;52.930;15.562;2023-04-25T08:57:31;14.60;99.90
18690;DHT22;9782;52.930;15.562;2023-04-25T08:59:58;14.60;99.90
18690;DHT22;9782;52.930;15.562;2023-04-25T09:02:26;14.70;99.90
18690;DHT22;9782;52.930;15.562;2023-04-25T09:04:54;14.70;99.90
18690;DHT22;9782;52.930;15.562;2023-04-25T09:07:22;14.70;99.90
18690;DHT22;9782;52.930;15.562;2023-04-25T09:09:51;14.90;99.90
18690;DHT22;9782;52.930;15.562;2023-04-25T09:12:18;14.90;99.90
18690;DHT22;9782;52.930;15.562;2023-04-25T09:15:02;14.50;99.90
18690;DHT22;9782;52.930;15.562;2023-04-25T09:17:29;14.00;99.90
18690;DHT22;9782;52.930;15.562;2023-04-25T09:20:05;13.60;99.90
18690;DHT22;9782;52.930;15.562;2023-04-25T09:22:34;13.20;99.90
18690;DHT22;9782;52.930;15.562;2023-04-25T09:25:03;13.00;1.00
18690;DHT22;9782;52.930;15.562;2023-04-25T09:27:30;13.00;1.00
18690;DHT22;9782;52.930;15.562;2023-04-25T09:29:58;13.20;1.00
18690;DHT22;9782;52.930;15.562;2023-04-25T09:32:26;13.40;1.00
18690;DHT22;9782;52.930;15.562;2023-04-25T09:34:54;13.70;1.00
18690;DHT22;9782;52.930;15.562;2023-04-25T09:37:22;14.20;1.00
18690;DHT22;9782;52.930;15.562;2023-04-25T09:39:52;14.40;1.00
18690;DHT22;9782;52.930;15.562;2023-04-25T09:42:22;14.60;1.00
18690;DHT22;9782;52.930;15.562;2023-04-25T09:44:51;14.90;99.90
18690;DHT22;9782;52.930;15.562;2023-04-25T09:47:18;15.10;99.90
18690;DHT22;9782;52.930;15.562;2023-04-25T09:49:47;15.10;99.90
18690;DHT22;9782;52.930;15.562;2023-04-25T09:52:16;15.10;99.90
18690;DHT22;9782;52.930;15.562;2023-04-25T09:54:44;15.20;99.90
18690;DHT22;9782;52.930;15.562;2023-04-25T09:57:14;15.30;99.90
18690;DHT22;9782;52.930;15.562;2023-04-25T09:59:45;15.40;99.90
18690;DHT22;9782;52.930;15.562;2023-04-25T10:02:14;15.60;99.90
18690;DHT22;9782;52.930;15.562;2023-04-25T10:04:41;15.80;99.90
18690;DHT22;9782;52.930;15.562;2023-04-25T10:07:09;16.10;99.90
18690;DHT22;9782;52.930;15.562;2023-04-25T10:09:37;16.20;99.90
18690;DHT22;9782;52.930;15.562;2023-04-25T10:12:06;16.20;99.90
18690;DHT22;9782;52.930;15.562;2023-04-25T10:14:35;16.10;99.90
18690;DHT22;9782;52.930;15.562;2023-04-25T10:17:02;15.80;99.90
18690;DHT22;9782;52.930;15.562;2023-04-25T10:19:29;15.50;99.90
18690;DHT22;9782;52.930;15.562;2023-04-25T10:22:04;15.40;99.90
18690;DHT22;9782;52.930;15.562;2023-04-25T10:24:31;15.60;99.90
18690;DHT22;9782;52.930;15.562;2023-04-25T10:26:58;15.90;99.90
18690;DHT22;9782;52.930;15.562;2023-04-25T10:29:27;16.00;99.90
18690;DHT22;9782;52.930;15.562;2023-04-25T10:31:55;15.80;99.90
18690;DHT22;9782;52.930;15.562;2023-04-25T10:34:38;15.40;99.90
18690;DHT22;9782;52.930;15.562;2023-04-25T10:37:05;14.80;99.90
18690;DHT22;9782;52.930;15.562;2023-04-25T10:39:34;14.30;99.90
18690;DHT22;9782;52.930;15.562;2023-04-25T10:42:02;13.90;1.00
18690;DHT22;9782;52.930;15.562;2023-04-25T10:44:30;13.80;1.00
18690;DHT22;9782;52.930;15.562;2023-04-25T10:46:59;13.80;99.90
18690;DHT22;9782;52.930;15.562;2023-04-25T10:49:33;14.00;99.90
18690;DHT22;9782;52.930;15.562;2023-04-25T10:52:14;14.10;99.90
18690;DHT22;9782;52.930;15.562;2023-04-25T10:54:42;14.20;99.90
18690;DHT22;9782;52.930;15.562;2023-04-25T10:57:25;14.30;99.90
